sensor_id;sensor_type;location;lat;lon;timestamp;P1;durP1;ratioP1;P2;durP2;ratioP2
48487;SDS011;34289;48.572;13.378;2023-03-14T00:00:58;8.10;;;4.28;;
48487;SDS011;34289;48.572;13.378;2023-03-14T00:03:24;7.00;;;4.38;;
48487;SDS011;34289;48.572;13.378;2023-03-14T00:05:50;13.27;;;6.05;;
48487;SDS011;34289;48.572;13.378;2023-03-14T00:08:15;10.10;;;6.10;;
48487;SDS011;34289;48.572;13.378;2023-03-14T00:10:41;6.93;;;5.07;;
48487;SDS011;34289;48.572;13.378;2023-03-14T00:13:07;7.68;;;4.60;;
48487;SDS011;34289;48.572;13.378;2023-03-14T00:15:33;9.85;;;4.43;;
48487;SDS011;34289;48.572;13.378;2023-03-14T00:18:00;7.03;;;3.80;;
48487;SDS011;34289;48.572;13.378;2023-03-14T00:20:25;9.30;;;4.32;;
48487;SDS011;34289;48.572;13.378;2023-03-14T00:22:51;7.82;;;4.60;;
48487;SDS011;34289;48.572;13.378;2023-03-14T00:25:17;7.65;;;5.40;;
48487;SDS011;34289;48.572;13.378;2023-03-14T00:27:43;6.88;;;5.00;;
48487;SDS011;34289;48.572;13.378;2023-03-14T00:30:09;7.35;;;4.85;;
48487;SDS011;34289;48.572;13.378;2023-03-14T00:32:35;9.95;;;4.80;;
48487;SDS011;34289;48.572;13.378;2023-03-14T00:35:01;10.52;;;5.10;;
48487;SDS011;34289;48.572;13.378;2023-03-14T00:37:28;6.60;;;4.20;;
48487;SDS011;34289;48.572;13.378;2023-03-14T00:39:54;6.07;;;3.92;;
48487;SDS011;34289;48.572;13.378;2023-03-14T00:42:19;7.97;;;4.72;;
48487;SDS011;34289;48.572;13.378;2023-03-14T00:44:45;8.23;;;4.88;;
48487;SDS011;34289;48.572;13.378;2023-03-14T00:47:11;8.18;;;4.57;;
48487;SDS011;34289;48.572;13.378;2023-03-14T00:49:36;11.60;;;5.50;;
48487;SDS011;34289;48.572;13.378;2023-03-14T00:52:02;6.93;;;4.60;;
48487;SDS011;34289;48.572;13.378;2023-03-14T00:54:28;8.32;;;5.25;;
48487;SDS011;34289;48.572;13.378;2023-03-14T00:56:54;5.53;;;4.20;;
48487;SDS011;34289;48.572;13.378;2023-03-14T00:59:19;6.05;;;4.57;;
48487;SDS011;34289;48.572;13.378;2023-03-14T01:01:45;6.18;;;4.72;;
48487;SDS011;34289;48.572;13.378;2023-03-14T01:04:11;7.72;;;4.57;;
48487;SDS011;34289;48.572;13.378;2023-03-14T01:06:36;8.75;;;4.20;;
48487;SDS011;34289;48.572;13.378;2023-03-14T01:09:02;7.03;;;4.03;;
48487;SDS011;34289;48.572;13.378;2023-03-14T01:11:29;6.65;;;4.28;;
48487;SDS011;34289;48.572;13.378;2023-03-14T01:13:56;7.13;;;4.38;;
48487;SDS011;34289;48.572;13.378;2023-03-14T01:16:23;9.70;;;5.28;;
48487;SDS011;34289;48.572;13.378;2023-03-14T01:18:50;9.15;;;4.28;;
48487;SDS011;34289;48.572;13.378;2023-03-14T01:21:21;7.55;;;4.32;;
48487;SDS011;34289;48.572;13.378;2023-03-14T01:23:49;6.15;;;4.32;;
48487;SDS011;34289;48.572;13.378;2023-03-14T01:26:17;13.13;;;5.43;;
48487;SDS011;34289;48.572;13.378;2023-03-14T01:28:45;12.48;;;4.38;;
48487;SDS011;34289;48.572;13.378;2023-03-14T01:31:12;6.03;;;4.30;;
48487;SDS011;34289;48.572;13.378;2023-03-14T01:33:38;6.80;;;4.30;;
48487;SDS011;34289;48.572;13.378;2023-03-14T01:36:05;6.03;;;4.57;;
48487;SDS011;34289;48.572;13.378;2023-03-14T01:38:31;8.90;;;5.18;;
48487;SDS011;34289;48.572;13.378;2023-03-14T01:40:58;8.35;;;4.20;;
48487;SDS011;34289;48.572;13.378;2023-03-14T01:43:24;6.10;;;4.07;;
48487;SDS011;34289;48.572;13.378;2023-03-14T01:46:36;9.15;;;4.68;;
48487;SDS011;34289;48.572;13.378;2023-03-14T01:48:40;6.68;;;4.68;;
48487;SDS011;34289;48.572;13.378;2023-03-14T01:51:08;9.68;;;5.07;;
48487;SDS011;34289;48.572;13.378;2023-03-14T01:53:37;8.32;;;5.28;;
48487;SDS011;34289;48.572;13.378;2023-03-14T01:56:05;7.88;;;4.60;;
48487;SDS011;34289;48.572;13.378;2023-03-14T01:58:32;12.40;;;4.72;;
48487;SDS011;34289;48.572;13.378;2023-03-14T02:01:01;6.90;;;4.68;;
48487;SDS011;34289;48.572;13.378;2023-03-14T02:03:28;7.28;;;4.60;;
48487;SDS011;34289;48.572;13.378;2023-03-14T02:05:57;6.32;;;4.20;;
48487;SDS011;34289;48.572;13.378;2023-03-14T02:08:29;6.22;;;4.20;;
48487;SDS011;34289;48.572;13.378;2023-03-14T02:10:56;5.15;;;3.92;;
48487;SDS011;34289;48.572;13.378;2023-03-14T02:13:22;6.88;;;4.30;;
48487;SDS011;34289;48.572;13.378;2023-03-14T02:15:48;5.80;;;3.83;;
48487;SDS011;34289;48.572;13.378;2023-03-14T02:18:14;6.88;;;4.72;;
48487;SDS011;34289;48.572;13.378;2023-03-14T02:21:00;9.40;;;4.70;;
48487;SDS011;34289;48.572;13.378;2023-03-14T02:26:10;8.18;;;4.20;;
48487;SDS011;34289;48.572;13.378;2023-03-14T02:28:44;6.25;;;3.97;;
48487;SDS011;34289;48.572;13.378;2023-03-14T02:31:10;8.52;;;5.03;;
48487;SDS011;34289;48.572;13.378;2023-03-14T02:33:37;8.05;;;5.75;;
48487;SDS011;34289;48.572;13.378;2023-03-14T02:36:07;6.15;;;4.05;;
48487;SDS011;34289;48.572;13.378;2023-03-14T02:38:41;5.30;;;4.18;;
48487;SDS011;34289;48.572;13.378;2023-03-14T02:41:08;9.15;;;3.92;;
48487;SDS011;34289;48.572;13.378;2023-03-14T02:43:34;4.90;;;3.92;;
48487;SDS011;34289;48.572;13.378;2023-03-14T02:46:00;5.45;;;3.85;;
48487;SDS011;34289;48.572;13.378;2023-03-14T02:48:28;6.05;;;4.47;;
48487;SDS011;34289;48.572;13.378;2023-03-14T02:50:59;5.78;;;3.75;;
48487;SDS011;34289;48.572;13.378;2023-03-14T02:53:27;8.00;;;4.13;;
48487;SDS011;34289;48.572;13.378;2023-03-14T02:55:54;8.82;;;3.80;;
48487;SDS011;34289;48.572;13.378;2023-03-14T02:58:20;7.78;;;4.40;;
48487;SDS011;34289;48.572;13.378;2023-03-14T03:00:46;5.35;;;3.70;;
48487;SDS011;34289;48.572;13.378;2023-03-14T03:03:12;7.05;;;3.55;;
48487;SDS011;34289;48.572;13.378;2023-03-14T03:05:38;6.63;;;3.45;;
48487;SDS011;34289;48.572;13.378;2023-03-14T03:08:03;5.28;;;4.00;;
48487;SDS011;34289;48.572;13.378;2023-03-14T03:10:30;5.10;;;3.97;;
48487;SDS011;34289;48.572;13.378;2023-03-14T03:12:56;6.85;;;3.42;;
48487;SDS011;34289;48.572;13.378;2023-03-14T03:15:22;5.00;;;3.33;;
48487;SDS011;34289;48.572;13.378;2023-03-14T03:17:48;4.55;;;3.45;;
48487;SDS011;34289;48.572;13.378;2023-03-14T03:20:13;6.43;;;4.32;;
48487;SDS011;34289;48.572;13.378;2023-03-14T03:22:39;5.78;;;4.68;;
48487;SDS011;34289;48.572;13.378;2023-03-14T03:25:05;8.02;;;4.22;;
48487;SDS011;34289;48.572;13.378;2023-03-14T03:27:33;5.10;;;4.10;;
48487;SDS011;34289;48.572;13.378;2023-03-14T03:30:00;7.18;;;4.40;;
48487;SDS011;34289;48.572;13.378;2023-03-14T03:32:26;7.07;;;4.50;;
48487;SDS011;34289;48.572;13.378;2023-03-14T03:34:52;5.18;;;4.15;;
48487;SDS011;34289;48.572;13.378;2023-03-14T03:37:17;5.07;;;3.90;;
48487;SDS011;34289;48.572;13.378;2023-03-14T03:39:43;5.32;;;3.95;;
48487;SDS011;34289;48.572;13.378;2023-03-14T03:42:09;7.45;;;4.38;;
48487;SDS011;34289;48.572;13.378;2023-03-14T03:44:35;5.03;;;3.40;;
48487;SDS011;34289;48.572;13.378;2023-03-14T03:47:01;6.60;;;3.97;;
48487;SDS011;34289;48.572;13.378;2023-03-14T03:49:30;3.80;;;3.50;;
48487;SDS011;34289;48.572;13.378;2023-03-14T03:51:56;4.88;;;4.00;;
48487;SDS011;34289;48.572;13.378;2023-03-14T03:54:22;8.20;;;4.30;;
48487;SDS011;34289;48.572;13.378;2023-03-14T03:56:48;7.65;;;4.15;;
48487;SDS011;34289;48.572;13.378;2023-03-14T03:59:13;5.53;;;3.90;;
48487;SDS011;34289;48.572;13.378;2023-03-14T04:01:39;6.68;;;4.03;;
48487;SDS011;34289;48.572;13.378;2023-03-14T04:04:05;5.75;;;3.90;;
48487;SDS011;34289;48.572;13.378;2023-03-14T04:06:30;8.30;;;4.32;;
48487;SDS011;34289;48.572;13.378;2023-03-14T04:08:56;9.32;;;4.25;;
48487;SDS011;34289;48.572;13.378;2023-03-14T04:11:22;8.05;;;3.58;;
48487;SDS011;34289;48.572;13.378;2023-03-14T04:13:47;4.90;;;4.00;;
48487;SDS011;34289;48.572;13.378;2023-03-14T04:16:14;7.03;;;3.45;;
48487;SDS011;34289;48.572;13.378;2023-03-14T04:18:42;10.57;;;4.60;;
48487;SDS011;34289;48.572;13.378;2023-03-14T04:21:07;6.95;;;4.10;;
48487;SDS011;34289;48.572;13.378;2023-03-14T04:23:33;6.97;;;4.20;;
48487;SDS011;34289;48.572;13.378;2023-03-14T04:25:59;6.88;;;4.95;;
48487;SDS011;34289;48.572;13.378;2023-03-14T04:28:24;8.13;;;4.38;;
48487;SDS011;34289;48.572;13.378;2023-03-14T04:30:50;9.52;;;4.80;;
48487;SDS011;34289;48.572;13.378;2023-03-14T04:33:15;11.93;;;5.38;;
48487;SDS011;34289;48.572;13.378;2023-03-14T04:35:45;13.80;;;5.57;;
48487;SDS011;34289;48.572;13.378;2023-03-14T04:38:10;11.20;;;5.22;;
48487;SDS011;34289;48.572;13.378;2023-03-14T04:40:37;10.02;;;4.88;;
48487;SDS011;34289;48.572;13.378;2023-03-14T04:43:03;6.97;;;4.72;;
48487;SDS011;34289;48.572;13.378;2023-03-14T04:45:29;8.52;;;5.00;;
48487;SDS011;34289;48.572;13.378;2023-03-14T04:47:55;8.95;;;5.03;;
48487;SDS011;34289;48.572;13.378;2023-03-14T04:50:20;6.65;;;4.32;;
48487;SDS011;34289;48.572;13.378;2023-03-14T04:52:46;11.35;;;5.15;;
48487;SDS011;34289;48.572;13.378;2023-03-14T04:55:12;11.52;;;5.05;;
48487;SDS011;34289;48.572;13.378;2023-03-14T04:57:37;7.57;;;4.65;;
48487;SDS011;34289;48.572;13.378;2023-03-14T05:00:03;8.30;;;4.80;;
48487;SDS011;34289;48.572;13.378;2023-03-14T05:02:32;7.85;;;4.88;;
48487;SDS011;34289;48.572;13.378;2023-03-14T05:04:58;8.05;;;5.13;;
48487;SDS011;34289;48.572;13.378;2023-03-14T05:07:24;11.35;;;5.15;;
48487;SDS011;34289;48.572;13.378;2023-03-14T05:09:50;11.05;;;5.13;;
48487;SDS011;34289;48.572;13.378;2023-03-14T05:12:15;13.63;;;5.88;;
48487;SDS011;34289;48.572;13.378;2023-03-14T05:14:41;16.63;;;6.55;;
48487;SDS011;34289;48.572;13.378;2023-03-14T05:17:07;15.30;;;6.20;;
48487;SDS011;34289;48.572;13.378;2023-03-14T05:19:32;18.55;;;6.47;;
48487;SDS011;34289;48.572;13.378;2023-03-14T05:21:58;12.23;;;5.85;;
48487;SDS011;34289;48.572;13.378;2023-03-14T05:24:23;12.75;;;6.72;;
48487;SDS011;34289;48.572;13.378;2023-03-14T05:26:49;7.80;;;5.40;;
48487;SDS011;34289;48.572;13.378;2023-03-14T05:29:15;13.85;;;6.85;;
48487;SDS011;34289;48.572;13.378;2023-03-14T05:31:40;7.97;;;5.47;;
48487;SDS011;34289;48.572;13.378;2023-03-14T05:34:06;14.13;;;6.07;;
48487;SDS011;34289;48.572;13.378;2023-03-14T05:36:31;11.65;;;6.80;;
48487;SDS011;34289;48.572;13.378;2023-03-14T05:38:57;16.27;;;7.38;;
48487;SDS011;34289;48.572;13.378;2023-03-14T05:41:23;15.40;;;6.05;;
48487;SDS011;34289;48.572;13.378;2023-03-14T05:43:48;13.68;;;6.13;;
48487;SDS011;34289;48.572;13.378;2023-03-14T05:46:14;12.60;;;5.95;;
48487;SDS011;34289;48.572;13.378;2023-03-14T05:48:40;9.45;;;5.70;;
48487;SDS011;34289;48.572;13.378;2023-03-14T05:51:05;12.85;;;5.80;;
48487;SDS011;34289;48.572;13.378;2023-03-14T05:53:31;17.02;;;7.50;;
48487;SDS011;34289;48.572;13.378;2023-03-14T05:55:57;9.00;;;5.50;;
48487;SDS011;34289;48.572;13.378;2023-03-14T05:58:23;10.05;;;5.63;;
48487;SDS011;34289;48.572;13.378;2023-03-14T06:00:49;10.77;;;5.20;;
48487;SDS011;34289;48.572;13.378;2023-03-14T06:03:15;13.50;;;6.70;;
48487;SDS011;34289;48.572;13.378;2023-03-14T06:05:40;10.00;;;6.22;;
48487;SDS011;34289;48.572;13.378;2023-03-14T06:08:06;17.45;;;7.00;;
48487;SDS011;34289;48.572;13.378;2023-03-14T06:10:32;15.13;;;8.02;;
48487;SDS011;34289;48.572;13.378;2023-03-14T06:12:59;10.48;;;6.68;;
48487;SDS011;34289;48.572;13.378;2023-03-14T06:15:24;7.45;;;4.70;;
48487;SDS011;34289;48.572;13.378;2023-03-14T06:17:50;8.80;;;5.10;;
48487;SDS011;34289;48.572;13.378;2023-03-14T06:20:16;10.82;;;6.07;;
48487;SDS011;34289;48.572;13.378;2023-03-14T06:22:41;9.80;;;6.68;;
48487;SDS011;34289;48.572;13.378;2023-03-14T06:25:07;9.07;;;7.55;;
48487;SDS011;34289;48.572;13.378;2023-03-14T06:27:33;7.70;;;5.90;;
48487;SDS011;34289;48.572;13.378;2023-03-14T06:29:59;9.57;;;6.50;;
48487;SDS011;34289;48.572;13.378;2023-03-14T06:32:25;7.22;;;4.85;;
48487;SDS011;34289;48.572;13.378;2023-03-14T06:34:50;7.00;;;5.00;;
48487;SDS011;34289;48.572;13.378;2023-03-14T06:37:16;5.40;;;3.95;;
48487;SDS011;34289;48.572;13.378;2023-03-14T06:39:41;6.80;;;4.05;;
48487;SDS011;34289;48.572;13.378;2023-03-14T06:42:09;5.38;;;3.85;;
48487;SDS011;34289;48.572;13.378;2023-03-14T06:44:34;9.93;;;4.00;;
48487;SDS011;34289;48.572;13.378;2023-03-14T06:47:00;3.50;;;3.15;;
48487;SDS011;34289;48.572;13.378;2023-03-14T06:49:26;3.55;;;2.28;;
48487;SDS011;34289;48.572;13.378;2023-03-14T06:51:51;8.73;;;3.17;;
48487;SDS011;34289;48.572;13.378;2023-03-14T06:54:17;3.58;;;2.67;;
48487;SDS011;34289;48.572;13.378;2023-03-14T06:56:43;3.00;;;2.70;;
48487;SDS011;34289;48.572;13.378;2023-03-14T06:59:08;2.95;;;2.45;;
48487;SDS011;34289;48.572;13.378;2023-03-14T07:01:34;4.80;;;3.33;;
48487;SDS011;34289;48.572;13.378;2023-03-14T07:04:00;5.38;;;2.63;;
48487;SDS011;34289;48.572;13.378;2023-03-14T07:06:26;4.32;;;2.95;;
48487;SDS011;34289;48.572;13.378;2023-03-14T07:08:54;3.35;;;2.53;;
48487;SDS011;34289;48.572;13.378;2023-03-14T07:11:20;4.28;;;2.70;;
48487;SDS011;34289;48.572;13.378;2023-03-14T07:13:46;4.40;;;2.47;;
48487;SDS011;34289;48.572;13.378;2023-03-14T07:16:11;5.80;;;2.80;;
48487;SDS011;34289;48.572;13.378;2023-03-14T07:18:37;4.95;;;3.65;;
48487;SDS011;34289;48.572;13.378;2023-03-14T07:21:03;4.45;;;2.40;;
48487;SDS011;34289;48.572;13.378;2023-03-14T07:23:33;5.60;;;2.85;;
48487;SDS011;34289;48.572;13.378;2023-03-14T07:25:59;4.00;;;2.20;;
48487;SDS011;34289;48.572;13.378;2023-03-14T07:28:24;6.95;;;2.88;;
48487;SDS011;34289;48.572;13.378;2023-03-14T07:30:52;5.95;;;2.30;;
48487;SDS011;34289;48.572;13.378;2023-03-14T07:33:18;3.05;;;2.40;;
48487;SDS011;34289;48.572;13.378;2023-03-14T07:35:43;2.33;;;1.70;;
48487;SDS011;34289;48.572;13.378;2023-03-14T07:38:09;5.78;;;2.05;;
48487;SDS011;34289;48.572;13.378;2023-03-14T07:40:34;3.05;;;1.90;;
48487;SDS011;34289;48.572;13.378;2023-03-14T07:43:00;1.65;;;1.35;;
48487;SDS011;34289;48.572;13.378;2023-03-14T07:45:26;2.22;;;1.63;;
48487;SDS011;34289;48.572;13.378;2023-03-14T07:47:51;4.20;;;2.40;;
48487;SDS011;34289;48.572;13.378;2023-03-14T07:50:17;4.38;;;1.92;;
48487;SDS011;34289;48.572;13.378;2023-03-14T07:52:44;4.72;;;2.10;;
48487;SDS011;34289;48.572;13.378;2023-03-14T07:55:09;6.00;;;2.00;;
48487;SDS011;34289;48.572;13.378;2023-03-14T07:57:35;4.20;;;1.48;;
48487;SDS011;34289;48.572;13.378;2023-03-14T08:00:00;4.32;;;1.85;;
48487;SDS011;34289;48.572;13.378;2023-03-14T08:02:26;2.40;;;1.65;;
48487;SDS011;34289;48.572;13.378;2023-03-14T08:04:52;3.03;;;2.00;;
48487;SDS011;34289;48.572;13.378;2023-03-14T08:07:17;1.30;;;1.20;;
48487;SDS011;34289;48.572;13.378;2023-03-14T08:09:43;3.50;;;1.70;;
48487;SDS011;34289;48.572;13.378;2023-03-14T08:12:09;2.15;;;1.70;;
48487;SDS011;34289;48.572;13.378;2023-03-14T08:14:34;2.20;;;1.83;;
48487;SDS011;34289;48.572;13.378;2023-03-14T08:17:01;2.15;;;1.90;;
48487;SDS011;34289;48.572;13.378;2023-03-14T08:19:27;4.05;;;1.60;;
48487;SDS011;34289;48.572;13.378;2023-03-14T08:21:53;1.48;;;1.38;;
48487;SDS011;34289;48.572;13.378;2023-03-14T08:24:19;3.08;;;1.95;;
48487;SDS011;34289;48.572;13.378;2023-03-14T08:26:44;1.73;;;1.58;;
48487;SDS011;34289;48.572;13.378;2023-03-14T08:29:10;2.70;;;1.55;;
48487;SDS011;34289;48.572;13.378;2023-03-14T08:31:37;2.15;;;1.52;;
48487;SDS011;34289;48.572;13.378;2023-03-14T08:34:03;3.33;;;1.23;;
48487;SDS011;34289;48.572;13.378;2023-03-14T08:36:29;1.98;;;1.20;;
48487;SDS011;34289;48.572;13.378;2023-03-14T08:38:56;1.60;;;1.50;;
48487;SDS011;34289;48.572;13.378;2023-03-14T08:41:23;0.95;;;0.85;;
48487;SDS011;34289;48.572;13.378;2023-03-14T08:43:48;3.35;;;1.50;;
48487;SDS011;34289;48.572;13.378;2023-03-14T08:46:14;1.85;;;1.48;;
48487;SDS011;34289;48.572;13.378;2023-03-14T08:48:39;1.58;;;1.35;;
48487;SDS011;34289;48.572;13.378;2023-03-14T08:51:06;1.30;;;1.10;;
48487;SDS011;34289;48.572;13.378;2023-03-14T08:53:37;2.08;;;1.13;;
48487;SDS011;34289;48.572;13.378;2023-03-14T08:56:03;2.92;;;1.17;;
48487;SDS011;34289;48.572;13.378;2023-03-14T08:58:31;2.05;;;1.10;;
48487;SDS011;34289;48.572;13.378;2023-03-14T09:00:57;3.03;;;1.05;;
48487;SDS011;34289;48.572;13.378;2023-03-14T09:03:23;1.38;;;1.20;;
48487;SDS011;34289;48.572;13.378;2023-03-14T09:05:49;2.53;;;1.20;;
48487;SDS011;34289;48.572;13.378;2023-03-14T09:08:15;4.55;;;1.35;;
48487;SDS011;34289;48.572;13.378;2023-03-14T09:10:41;3.28;;;1.70;;
48487;SDS011;34289;48.572;13.378;2023-03-14T09:13:06;4.65;;;1.48;;
48487;SDS011;34289;48.572;13.378;2023-03-14T09:15:32;1.63;;;1.25;;
48487;SDS011;34289;48.572;13.378;2023-03-14T09:17:58;3.42;;;1.48;;
48487;SDS011;34289;48.572;13.378;2023-03-14T09:20:24;1.00;;;0.95;;
48487;SDS011;34289;48.572;13.378;2023-03-14T09:22:49;3.60;;;1.40;;
48487;SDS011;34289;48.572;13.378;2023-03-14T09:25:15;3.08;;;1.25;;
48487;SDS011;34289;48.572;13.378;2023-03-14T09:27:41;2.83;;;1.55;;
48487;SDS011;34289;48.572;13.378;2023-03-14T09:30:06;2.33;;;1.40;;
48487;SDS011;34289;48.572;13.378;2023-03-14T09:32:33;1.98;;;1.05;;
48487;SDS011;34289;48.572;13.378;2023-03-14T09:34:58;1.83;;;1.45;;
48487;SDS011;34289;48.572;13.378;2023-03-14T09:37:24;2.45;;;1.50;;
48487;SDS011;34289;48.572;13.378;2023-03-14T09:39:50;4.55;;;1.48;;
48487;SDS011;34289;48.572;13.378;2023-03-14T09:42:20;3.65;;;1.27;;
48487;SDS011;34289;48.572;13.378;2023-03-14T09:48:05;1.80;;;1.50;;
48487;SDS011;34289;48.572;13.378;2023-03-14T09:50:33;2.67;;;1.30;;
48487;SDS011;34289;48.572;13.378;2023-03-14T09:53:06;1.98;;;1.40;;
48487;SDS011;34289;48.572;13.378;2023-03-14T09:55:37;2.20;;;1.42;;
48487;SDS011;34289;48.572;13.378;2023-03-14T09:58:05;2.63;;;1.40;;
48487;SDS011;34289;48.572;13.378;2023-03-14T10:00:36;4.15;;;1.27;;
48487;SDS011;34289;48.572;13.378;2023-03-14T10:05:36;2.72;;;2.03;;
48487;SDS011;34289;48.572;13.378;2023-03-14T10:08:03;2.22;;;1.52;;
48487;SDS011;34289;48.572;13.378;2023-03-14T10:10:29;2.83;;;1.73;;
48487;SDS011;34289;48.572;13.378;2023-03-14T10:13:14;3.08;;;1.90;;
48487;SDS011;34289;48.572;13.378;2023-03-14T10:15:59;1.88;;;1.40;;
48487;SDS011;34289;48.572;13.378;2023-03-14T10:18:27;4.18;;;1.70;;
48487;SDS011;34289;48.572;13.378;2023-03-14T10:21:02;2.42;;;1.85;;
48487;SDS011;34289;48.572;13.378;2023-03-14T10:23:41;3.92;;;1.83;;
48487;SDS011;34289;48.572;13.378;2023-03-14T10:26:15;3.08;;;1.65;;
48487;SDS011;34289;48.572;13.378;2023-03-14T10:28:43;2.53;;;1.83;;
48487;SDS011;34289;48.572;13.378;2023-03-14T10:31:11;2.15;;;1.77;;
48487;SDS011;34289;48.572;13.378;2023-03-14T10:33:37;2.65;;;1.63;;
48487;SDS011;34289;48.572;13.378;2023-03-14T10:36:04;1.85;;;1.67;;
48487;SDS011;34289;48.572;13.378;2023-03-14T10:38:46;1.85;;;1.50;;
48487;SDS011;34289;48.572;13.378;2023-03-14T10:41:25;2.20;;;1.70;;
48487;SDS011;34289;48.572;13.378;2023-03-14T10:43:53;1.33;;;1.10;;
48487;SDS011;34289;48.572;13.378;2023-03-14T10:46:21;3.65;;;1.90;;
48487;SDS011;34289;48.572;13.378;2023-03-14T10:48:50;1.55;;;1.30;;
48487;SDS011;34289;48.572;13.378;2023-03-14T10:51:30;2.05;;;1.63;;
48487;SDS011;34289;48.572;13.378;2023-03-14T10:53:57;1.77;;;1.63;;
48487;SDS011;34289;48.572;13.378;2023-03-14T10:56:27;3.33;;;1.77;;
48487;SDS011;34289;48.572;13.378;2023-03-14T10:59:00;11.45;;;8.63;;
48487;SDS011;34289;48.572;13.378;2023-03-14T11:01:29;2.30;;;1.63;;
48487;SDS011;34289;48.572;13.378;2023-03-14T11:06:54;1.52;;;1.30;;
48487;SDS011;34289;48.572;13.378;2023-03-14T11:09:38;2.42;;;1.27;;
48487;SDS011;34289;48.572;13.378;2023-03-14T11:15:30;1.67;;;1.38;;
48487;SDS011;34289;48.572;13.378;2023-03-14T11:29:07;4.28;;;1.02;;
48487;SDS011;34289;48.572;13.378;2023-03-14T11:31:33;1.88;;;0.90;;
48487;SDS011;34289;48.572;13.378;2023-03-14T11:34:27;0.85;;;0.85;;
48487;SDS011;34289;48.572;13.378;2023-03-14T11:36:59;2.70;;;0.90;;
48487;SDS011;34289;48.572;13.378;2023-03-14T11:39:26;0.85;;;0.85;;
48487;SDS011;34289;48.572;13.378;2023-03-14T11:42:01;1.10;;;1.00;;
48487;SDS011;34289;48.572;13.378;2023-03-14T11:44:32;0.80;;;0.80;;
48487;SDS011;34289;48.572;13.378;2023-03-14T11:47:11;1.15;;;1.05;;
48487;SDS011;34289;48.572;13.378;2023-03-14T11:52:39;0.75;;;0.70;;
48487;SDS011;34289;48.572;13.378;2023-03-14T11:55:23;1.20;;;1.10;;
48487;SDS011;34289;48.572;13.378;2023-03-14T11:57:55;0.88;;;0.85;;
48487;SDS011;34289;48.572;13.378;2023-03-14T12:00:43;3.03;;;2.40;;
48487;SDS011;34289;48.572;13.378;2023-03-14T12:11:19;1.50;;;0.90;;
48487;SDS011;34289;48.572;13.378;2023-03-14T12:16:56;0.93;;;0.70;;
48487;SDS011;34289;48.572;13.378;2023-03-14T12:19:31;0.60;;;0.60;;
48487;SDS011;34289;48.572;13.378;2023-03-14T12:24:31;1.00;;;0.70;;
48487;SDS011;34289;48.572;13.378;2023-03-14T12:27:01;1.13;;;1.02;;
48487;SDS011;34289;48.572;13.378;2023-03-14T12:29:29;1.90;;;1.00;;
48487;SDS011;34289;48.572;13.378;2023-03-14T12:34:48;0.80;;;0.80;;
48487;SDS011;34289;48.572;13.378;2023-03-14T12:37:26;1.25;;;1.15;;
48487;SDS011;34289;48.572;13.378;2023-03-14T12:40:20;0.80;;;0.80;;
48487;SDS011;34289;48.572;13.378;2023-03-14T12:42:54;0.70;;;0.70;;
48487;SDS011;34289;48.572;13.378;2023-03-14T12:45:32;1.25;;;0.93;;
48487;SDS011;34289;48.572;13.378;2023-03-14T12:48:07;1.20;;;0.90;;
48487;SDS011;34289;48.572;13.378;2023-03-14T12:50:53;0.98;;;0.98;;
48487;SDS011;34289;48.572;13.378;2023-03-14T12:58:44;5.32;;;0.80;;
48487;SDS011;34289;48.572;13.378;2023-03-14T13:01:19;2.85;;;0.80;;
48487;SDS011;34289;48.572;13.378;2023-03-14T13:03:56;2.15;;;1.13;;
48487;SDS011;34289;48.572;13.378;2023-03-14T13:11:55;1.23;;;1.00;;
48487;SDS011;34289;48.572;13.378;2023-03-14T13:14:27;0.98;;;0.80;;
48487;SDS011;34289;48.572;13.378;2023-03-14T13:16:55;0.80;;;0.80;;
48487;SDS011;34289;48.572;13.378;2023-03-14T13:19:24;0.80;;;0.80;;
48487;SDS011;34289;48.572;13.378;2023-03-14T13:21:54;1.70;;;0.80;;
48487;SDS011;34289;48.572;13.378;2023-03-14T13:24:26;1.10;;;0.80;;
48487;SDS011;34289;48.572;13.378;2023-03-14T13:26:56;0.93;;;0.80;;
48487;SDS011;34289;48.572;13.378;2023-03-14T13:29:23;1.10;;;0.90;;
48487;SDS011;34289;48.572;13.378;2023-03-14T13:31:54;0.70;;;0.70;;
48487;SDS011;34289;48.572;13.378;2023-03-14T13:34:24;1.45;;;0.90;;
48487;SDS011;34289;48.572;13.378;2023-03-14T13:36:51;1.67;;;0.90;;
48487;SDS011;34289;48.572;13.378;2023-03-14T13:39:22;0.85;;;0.80;;
48487;SDS011;34289;48.572;13.378;2023-03-14T13:41:50;0.73;;;0.65;;
48487;SDS011;34289;48.572;13.378;2023-03-14T13:47:02;0.73;;;0.73;;
48487;SDS011;34289;48.572;13.378;2023-03-14T13:49:31;0.70;;;0.70;;
48487;SDS011;34289;48.572;13.378;2023-03-14T13:52:00;0.80;;;0.80;;
48487;SDS011;34289;48.572;13.378;2023-03-14T13:54:26;0.98;;;0.70;;
48487;SDS011;34289;48.572;13.378;2023-03-14T13:56:59;1.35;;;0.80;;
48487;SDS011;34289;48.572;13.378;2023-03-14T13:59:27;0.70;;;0.70;;
48487;SDS011;34289;48.572;13.378;2023-03-14T14:01:54;0.60;;;0.60;;
48487;SDS011;34289;48.572;13.378;2023-03-14T14:04:23;2.55;;;0.70;;
48487;SDS011;34289;48.572;13.378;2023-03-14T14:06:55;1.95;;;0.80;;
48487;SDS011;34289;48.572;13.378;2023-03-14T14:09:24;0.50;;;0.50;;
48487;SDS011;34289;48.572;13.378;2023-03-14T14:12:02;1.17;;;0.68;;
48487;SDS011;34289;48.572;13.378;2023-03-14T14:17:03;0.85;;;0.77;;
48487;SDS011;34289;48.572;13.378;2023-03-14T14:19:31;0.52;;;0.52;;
48487;SDS011;34289;48.572;13.378;2023-03-14T14:21:59;0.75;;;0.68;;
48487;SDS011;34289;48.572;13.378;2023-03-14T14:24:28;0.60;;;0.60;;
48487;SDS011;34289;48.572;13.378;2023-03-14T14:27:00;1.75;;;0.82;;
48487;SDS011;34289;48.572;13.378;2023-03-14T14:29:38;0.63;;;0.63;;
48487;SDS011;34289;48.572;13.378;2023-03-14T14:34:45;2.38;;;0.80;;
48487;SDS011;34289;48.572;13.378;2023-03-14T14:37:34;0.70;;;0.70;;
48487;SDS011;34289;48.572;13.378;2023-03-14T14:40:07;0.70;;;0.70;;
48487;SDS011;34289;48.572;13.378;2023-03-14T14:42:35;1.27;;;0.77;;
48487;SDS011;34289;48.572;13.378;2023-03-14T14:45:05;0.60;;;0.60;;
48487;SDS011;34289;48.572;13.378;2023-03-14T14:47:36;1.20;;;0.80;;
48487;SDS011;34289;48.572;13.378;2023-03-14T14:52:56;1.00;;;0.90;;
48487;SDS011;34289;48.572;13.378;2023-03-14T14:55:28;2.63;;;1.00;;
48487;SDS011;34289;48.572;13.378;2023-03-14T14:57:57;0.70;;;0.70;;
48487;SDS011;34289;48.572;13.378;2023-03-14T15:00:23;5.53;;;0.80;;
48487;SDS011;34289;48.572;13.378;2023-03-14T15:02:51;0.70;;;0.70;;
48487;SDS011;34289;48.572;13.378;2023-03-14T15:05:21;0.90;;;0.80;;
48487;SDS011;34289;48.572;13.378;2023-03-14T15:07:48;0.90;;;0.80;;
48487;SDS011;34289;48.572;13.378;2023-03-14T15:10:16;1.48;;;1.17;;
48487;SDS011;34289;48.572;13.378;2023-03-14T15:12:43;3.35;;;1.00;;
48487;SDS011;34289;48.572;13.378;2023-03-14T15:15:10;1.05;;;0.90;;
48487;SDS011;34289;48.572;13.378;2023-03-14T15:17:37;0.80;;;0.80;;
48487;SDS011;34289;48.572;13.378;2023-03-14T15:20:09;1.48;;;0.75;;
48487;SDS011;34289;48.572;13.378;2023-03-14T15:22:38;1.40;;;0.80;;
48487;SDS011;34289;48.572;13.378;2023-03-14T15:25:04;1.58;;;0.98;;
48487;SDS011;34289;48.572;13.378;2023-03-14T15:27:30;2.70;;;0.70;;
48487;SDS011;34289;48.572;13.378;2023-03-14T15:29:57;4.22;;;1.17;;
48487;SDS011;34289;48.572;13.378;2023-03-14T15:32:23;0.70;;;0.70;;
48487;SDS011;34289;48.572;13.378;2023-03-14T15:34:52;1.08;;;0.98;;
48487;SDS011;34289;48.572;13.378;2023-03-14T15:37:19;1.00;;;0.90;;
48487;SDS011;34289;48.572;13.378;2023-03-14T15:39:44;1.20;;;0.80;;
48487;SDS011;34289;48.572;13.378;2023-03-14T15:42:10;1.42;;;0.70;;
48487;SDS011;34289;48.572;13.378;2023-03-14T15:44:36;1.38;;;0.88;;